sensor_id;sensor_type;location;lat;lon;timestamp;P1;durP1;ratioP1;P2;durP2;ratioP2
20559;SDS011;10438;51.454;6.718;2022-09-24T00:00:45;22.00;;;14.73;;
20559;SDS011;10438;51.454;6.718;2022-09-24T00:03:14;21.73;;;14.20;;
20559;SDS011;10438;51.454;6.718;2022-09-24T00:05:40;21.77;;;15.33;;
20559;SDS011;10438;51.454;6.718;2022-09-24T00:08:06;22.67;;;16.00;;
20559;SDS011;10438;51.454;6.718;2022-09-24T00:10:36;21.27;;;15.37;;
20559;SDS011;10438;51.454;6.718;2022-09-24T00:13:02;21.30;;;15.00;;
20559;SDS011;10438;51.454;6.718;2022-09-24T00:15:28;24.37;;;15.97;;
20559;SDS011;10438;51.454;6.718;2022-09-24T00:17:55;22.43;;;15.47;;
20559;SDS011;10438;51.454;6.718;2022-09-24T00:20:21;22.53;;;16.23;;
20559;SDS011;10438;51.454;6.718;2022-09-24T00:22:47;25.10;;;17.27;;
20559;SDS011;10438;51.454;6.718;2022-09-24T00:25:12;26.60;;;18.37;;
20559;SDS011;10438;51.454;6.718;2022-09-24T00:27:56;25.73;;;17.53;;
20559;SDS011;10438;51.454;6.718;2022-09-24T00:30:22;24.70;;;16.90;;
20559;SDS011;10438;51.454;6.718;2022-09-24T00:32:47;28.57;;;18.43;;
20559;SDS011;10438;51.454;6.718;2022-09-24T00:35:13;25.53;;;18.87;;
20559;SDS011;10438;51.454;6.718;2022-09-24T00:37:39;33.20;;;20.47;;
20559;SDS011;10438;51.454;6.718;2022-09-24T00:40:05;31.83;;;19.70;;
20559;SDS011;10438;51.454;6.718;2022-09-24T00:42:31;28.87;;;19.67;;
20559;SDS011;10438;51.454;6.718;2022-09-24T00:44:56;28.43;;;20.30;;
20559;SDS011;10438;51.454;6.718;2022-09-24T00:47:24;29.70;;;20.20;;
20559;SDS011;10438;51.454;6.718;2022-09-24T00:50:35;27.13;;;19.73;;
20559;SDS011;10438;51.454;6.718;2022-09-24T00:52:47;28.33;;;19.53;;
20559;SDS011;10438;51.454;6.718;2022-09-24T00:55:17;28.93;;;21.00;;
20559;SDS011;10438;51.454;6.718;2022-09-24T00:57:44;32.47;;;20.03;;
20559;SDS011;10438;51.454;6.718;2022-09-24T01:00:14;29.40;;;20.00;;
20559;SDS011;10438;51.454;6.718;2022-09-24T01:02:40;30.73;;;19.97;;
20559;SDS011;10438;51.454;6.718;2022-09-24T01:05:08;29.87;;;20.37;;
20559;SDS011;10438;51.454;6.718;2022-09-24T01:07:34;30.20;;;21.77;;
20559;SDS011;10438;51.454;6.718;2022-09-24T01:10:00;33.67;;;21.50;;
20559;SDS011;10438;51.454;6.718;2022-09-24T01:12:30;28.53;;;20.63;;
20559;SDS011;10438;51.454;6.718;2022-09-24T01:15:03;31.03;;;21.93;;
20559;SDS011;10438;51.454;6.718;2022-09-24T01:17:48;34.70;;;22.20;;
20559;SDS011;10438;51.454;6.718;2022-09-24T01:26:26;31.97;;;22.77;;
20559;SDS011;10438;51.454;6.718;2022-09-24T01:31:49;35.70;;;24.10;;
20559;SDS011;10438;51.454;6.718;2022-09-24T01:34:39;33.50;;;24.13;;
20559;SDS011;10438;51.454;6.718;2022-09-24T01:37:09;31.90;;;23.93;;
20559;SDS011;10438;51.454;6.718;2022-09-24T01:39:38;40.33;;;25.47;;
20559;SDS011;10438;51.454;6.718;2022-09-24T01:42:03;36.27;;;24.03;;
20559;SDS011;10438;51.454;6.718;2022-09-24T01:44:30;34.67;;;22.37;;
20559;SDS011;10438;51.454;6.718;2022-09-24T01:46:56;32.50;;;22.37;;
20559;SDS011;10438;51.454;6.718;2022-09-24T01:49:22;34.23;;;22.90;;
20559;SDS011;10438;51.454;6.718;2022-09-24T01:51:49;31.97;;;23.97;;
20559;SDS011;10438;51.454;6.718;2022-09-24T01:59:44;31.27;;;22.40;;
20559;SDS011;10438;51.454;6.718;2022-09-24T02:02:23;32.20;;;22.23;;
20559;SDS011;10438;51.454;6.718;2022-09-24T02:05:08;32.87;;;23.63;;
20559;SDS011;10438;51.454;6.718;2022-09-24T02:10:29;31.47;;;22.83;;
20559;SDS011;10438;51.454;6.718;2022-09-24T02:13:00;36.67;;;21.73;;
20559;SDS011;10438;51.454;6.718;2022-09-24T02:15:31;34.07;;;22.97;;
20559;SDS011;10438;51.454;6.718;2022-09-24T02:18:08;31.50;;;21.07;;
20559;SDS011;10438;51.454;6.718;2022-09-24T02:20:35;30.40;;;20.60;;
20559;SDS011;10438;51.454;6.718;2022-09-24T02:23:05;30.90;;;20.87;;
20559;SDS011;10438;51.454;6.718;2022-09-24T02:25:36;28.60;;;19.13;;
20559;SDS011;10438;51.454;6.718;2022-09-24T02:28:14;29.73;;;20.20;;
20559;SDS011;10438;51.454;6.718;2022-09-24T02:30:42;25.50;;;18.47;;
20559;SDS011;10438;51.454;6.718;2022-09-24T02:33:11;30.07;;;18.33;;
20559;SDS011;10438;51.454;6.718;2022-09-24T02:35:57;29.77;;;18.03;;
20559;SDS011;10438;51.454;6.718;2022-09-24T02:38:23;25.80;;;18.67;;
20559;SDS011;10438;51.454;6.718;2022-09-24T02:40:49;25.60;;;17.13;;
20559;SDS011;10438;51.454;6.718;2022-09-24T02:43:16;26.53;;;18.07;;
20559;SDS011;10438;51.454;6.718;2022-09-24T02:45:42;25.90;;;17.47;;
20559;SDS011;10438;51.454;6.718;2022-09-24T02:48:08;23.83;;;16.57;;
20559;SDS011;10438;51.454;6.718;2022-09-24T02:50:34;22.10;;;15.83;;
20559;SDS011;10438;51.454;6.718;2022-09-24T02:52:59;24.90;;;16.40;;
20559;SDS011;10438;51.454;6.718;2022-09-24T02:55:25;22.20;;;15.57;;
20559;SDS011;10438;51.454;6.718;2022-09-24T02:57:51;22.53;;;15.67;;
20559;SDS011;10438;51.454;6.718;2022-09-24T03:00:17;24.37;;;15.47;;
20559;SDS011;10438;51.454;6.718;2022-09-24T03:02:45;23.53;;;16.07;;
20559;SDS011;10438;51.454;6.718;2022-09-24T03:05:11;20.87;;;14.90;;
20559;SDS011;10438;51.454;6.718;2022-09-24T03:07:42;23.30;;;15.33;;
20559;SDS011;10438;51.454;6.718;2022-09-24T03:10:08;20.17;;;13.93;;
20559;SDS011;10438;51.454;6.718;2022-09-24T03:12:34;22.87;;;14.53;;
20559;SDS011;10438;51.454;6.718;2022-09-24T03:14:59;20.67;;;13.47;;
20559;SDS011;10438;51.454;6.718;2022-09-24T03:17:25;22.73;;;14.23;;
20559;SDS011;10438;51.454;6.718;2022-09-24T03:19:51;20.80;;;15.07;;
20559;SDS011;10438;51.454;6.718;2022-09-24T03:22:17;20.43;;;13.87;;
20559;SDS011;10438;51.454;6.718;2022-09-24T03:24:42;22.43;;;14.83;;
20559;SDS011;10438;51.454;6.718;2022-09-24T03:27:08;20.03;;;14.60;;
20559;SDS011;10438;51.454;6.718;2022-09-24T03:29:34;22.07;;;14.37;;
20559;SDS011;10438;51.454;6.718;2022-09-24T03:32:18;23.73;;;15.07;;
20559;SDS011;10438;51.454;6.718;2022-09-24T03:34:44;20.93;;;13.33;;
20559;SDS011;10438;51.454;6.718;2022-09-24T03:37:09;26.07;;;15.67;;
20559;SDS011;10438;51.454;6.718;2022-09-24T03:39:35;21.17;;;15.10;;
20559;SDS011;10438;51.454;6.718;2022-09-24T03:42:00;23.83;;;15.63;;
20559;SDS011;10438;51.454;6.718;2022-09-24T03:44:26;24.73;;;15.93;;
20559;SDS011;10438;51.454;6.718;2022-09-24T03:46:52;20.13;;;13.97;;
20559;SDS011;10438;51.454;6.718;2022-09-24T03:49:18;23.77;;;15.47;;
20559;SDS011;10438;51.454;6.718;2022-09-24T03:51:43;22.53;;;14.63;;
20559;SDS011;10438;51.454;6.718;2022-09-24T03:54:09;25.07;;;14.53;;
20559;SDS011;10438;51.454;6.718;2022-09-24T03:56:35;26.63;;;14.33;;
20559;SDS011;10438;51.454;6.718;2022-09-24T03:59:00;25.40;;;15.43;;
20559;SDS011;10438;51.454;6.718;2022-09-24T04:01:26;23.77;;;14.80;;
20559;SDS011;10438;51.454;6.718;2022-09-24T04:03:53;24.93;;;15.17;;
20559;SDS011;10438;51.454;6.718;2022-09-24T04:06:18;26.60;;;15.27;;
20559;SDS011;10438;51.454;6.718;2022-09-24T04:08:44;22.13;;;15.30;;
20559;SDS011;10438;51.454;6.718;2022-09-24T04:11:09;22.10;;;14.43;;
20559;SDS011;10438;51.454;6.718;2022-09-24T04:13:35;20.43;;;14.97;;
20559;SDS011;10438;51.454;6.718;2022-09-24T04:16:01;23.10;;;14.97;;
20559;SDS011;10438;51.454;6.718;2022-09-24T04:18:27;20.77;;;14.90;;
20559;SDS011;10438;51.454;6.718;2022-09-24T04:20:56;22.40;;;15.17;;
20559;SDS011;10438;51.454;6.718;2022-09-24T04:23:25;21.17;;;14.57;;
20559;SDS011;10438;51.454;6.718;2022-09-24T04:25:51;22.53;;;14.27;;
20559;SDS011;10438;51.454;6.718;2022-09-24T04:28:18;23.30;;;14.50;;
20559;SDS011;10438;51.454;6.718;2022-09-24T04:30:43;23.03;;;14.70;;
20559;SDS011;10438;51.454;6.718;2022-09-24T04:33:09;23.03;;;14.67;;
20559;SDS011;10438;51.454;6.718;2022-09-24T04:35:35;19.63;;;13.87;;
20559;SDS011;10438;51.454;6.718;2022-09-24T04:38:01;22.40;;;14.07;;
20559;SDS011;10438;51.454;6.718;2022-09-24T04:40:30;19.33;;;13.20;;
20559;SDS011;10438;51.454;6.718;2022-09-24T04:42:56;21.87;;;14.00;;
20559;SDS011;10438;51.454;6.718;2022-09-24T04:45:21;21.33;;;13.47;;
20559;SDS011;10438;51.454;6.718;2022-09-24T04:47:49;22.30;;;13.77;;
20559;SDS011;10438;51.454;6.718;2022-09-24T04:50:21;23.03;;;13.97;;
20559;SDS011;10438;51.454;6.718;2022-09-24T04:52:48;20.57;;;13.70;;
20559;SDS011;10438;51.454;6.718;2022-09-24T04:55:14;20.07;;;13.77;;
20559;SDS011;10438;51.454;6.718;2022-09-24T04:57:39;18.77;;;13.60;;
20559;SDS011;10438;51.454;6.718;2022-09-24T05:00:08;23.20;;;14.17;;
20559;SDS011;10438;51.454;6.718;2022-09-24T05:02:38;19.10;;;13.23;;
20559;SDS011;10438;51.454;6.718;2022-09-24T05:05:04;19.10;;;13.30;;
20559;SDS011;10438;51.454;6.718;2022-09-24T05:07:30;19.87;;;13.73;;
20559;SDS011;10438;51.454;6.718;2022-09-24T05:09:56;18.50;;;12.63;;
20559;SDS011;10438;51.454;6.718;2022-09-24T05:12:21;17.77;;;13.30;;
20559;SDS011;10438;51.454;6.718;2022-09-24T05:14:47;20.20;;;13.23;;
20559;SDS011;10438;51.454;6.718;2022-09-24T05:17:12;20.93;;;12.13;;
20559;SDS011;10438;51.454;6.718;2022-09-24T05:19:39;17.03;;;12.30;;
20559;SDS011;10438;51.454;6.718;2022-09-24T05:22:04;20.60;;;13.40;;
20559;SDS011;10438;51.454;6.718;2022-09-24T05:24:30;21.70;;;13.17;;
20559;SDS011;10438;51.454;6.718;2022-09-24T05:26:56;21.57;;;13.47;;
20559;SDS011;10438;51.454;6.718;2022-09-24T05:29:40;23.83;;;13.97;;
20559;SDS011;10438;51.454;6.718;2022-09-24T05:32:11;21.87;;;13.17;;
20559;SDS011;10438;51.454;6.718;2022-09-24T05:34:39;22.00;;;13.33;;
20559;SDS011;10438;51.454;6.718;2022-09-24T05:37:06;18.50;;;13.50;;
20559;SDS011;10438;51.454;6.718;2022-09-24T05:39:33;22.00;;;13.77;;
20559;SDS011;10438;51.454;6.718;2022-09-24T05:41:59;23.57;;;14.37;;
20559;SDS011;10438;51.454;6.718;2022-09-24T05:44:25;21.37;;;14.03;;
20559;SDS011;10438;51.454;6.718;2022-09-24T05:46:50;20.63;;;13.67;;
20559;SDS011;10438;51.454;6.718;2022-09-24T05:49:16;20.13;;;13.47;;
20559;SDS011;10438;51.454;6.718;2022-09-24T05:51:42;26.40;;;13.47;;
20559;SDS011;10438;51.454;6.718;2022-09-24T05:54:08;21.63;;;13.57;;
20559;SDS011;10438;51.454;6.718;2022-09-24T05:56:35;19.90;;;12.60;;
20559;SDS011;10438;51.454;6.718;2022-09-24T05:59:01;22.10;;;12.83;;
20559;SDS011;10438;51.454;6.718;2022-09-24T06:01:27;24.33;;;12.53;;
20559;SDS011;10438;51.454;6.718;2022-09-24T06:03:56;20.83;;;13.20;;
20559;SDS011;10438;51.454;6.718;2022-09-24T06:06:23;18.27;;;12.03;;
20559;SDS011;10438;51.454;6.718;2022-09-24T06:08:49;24.07;;;12.20;;
20559;SDS011;10438;51.454;6.718;2022-09-24T06:11:14;18.10;;;11.50;;
20559;SDS011;10438;51.454;6.718;2022-09-24T06:13:40;19.23;;;12.20;;
20559;SDS011;10438;51.454;6.718;2022-09-24T06:16:06;24.00;;;12.40;;
20559;SDS011;10438;51.454;6.718;2022-09-24T06:18:36;17.37;;;12.30;;
20559;SDS011;10438;51.454;6.718;2022-09-24T06:21:07;21.53;;;12.93;;
20559;SDS011;10438;51.454;6.718;2022-09-24T06:23:35;18.50;;;12.60;;
20559;SDS011;10438;51.454;6.718;2022-09-24T06:26:02;19.30;;;12.77;;
20559;SDS011;10438;51.454;6.718;2022-09-24T06:28:29;22.17;;;13.57;;
20559;SDS011;10438;51.454;6.718;2022-09-24T06:30:57;22.33;;;14.00;;
20559;SDS011;10438;51.454;6.718;2022-09-24T06:33:23;24.73;;;14.50;;
20559;SDS011;10438;51.454;6.718;2022-09-24T06:35:49;29.00;;;15.13;;
20559;SDS011;10438;51.454;6.718;2022-09-24T06:38:15;24.13;;;14.73;;
20559;SDS011;10438;51.454;6.718;2022-09-24T06:40:42;27.40;;;16.17;;
20559;SDS011;10438;51.454;6.718;2022-09-24T06:43:15;25.83;;;15.30;;
20559;SDS011;10438;51.454;6.718;2022-09-24T06:45:42;26.83;;;15.93;;
20559;SDS011;10438;51.454;6.718;2022-09-24T06:48:08;29.63;;;15.30;;
20559;SDS011;10438;51.454;6.718;2022-09-24T06:50:37;29.17;;;16.40;;
20559;SDS011;10438;51.454;6.718;2022-09-24T06:53:08;23.97;;;15.30;;
20559;SDS011;10438;51.454;6.718;2022-09-24T06:55:35;30.17;;;16.70;;
20559;SDS011;10438;51.454;6.718;2022-09-24T06:58:04;27.27;;;16.57;;
20559;SDS011;10438;51.454;6.718;2022-09-24T07:00:31;30.00;;;16.17;;
20559;SDS011;10438;51.454;6.718;2022-09-24T07:02:58;31.37;;;17.43;;
20559;SDS011;10438;51.454;6.718;2022-09-24T07:05:23;31.40;;;15.67;;
20559;SDS011;10438;51.454;6.718;2022-09-24T07:07:49;28.13;;;15.30;;
20559;SDS011;10438;51.454;6.718;2022-09-24T07:10:14;29.97;;;14.97;;
20559;SDS011;10438;51.454;6.718;2022-09-24T07:12:40;29.73;;;15.30;;
20559;SDS011;10438;51.454;6.718;2022-09-24T07:15:06;36.97;;;16.83;;
20559;SDS011;10438;51.454;6.718;2022-09-24T07:17:32;36.10;;;17.20;;
20559;SDS011;10438;51.454;6.718;2022-09-24T07:19:58;34.37;;;17.10;;
20559;SDS011;10438;51.454;6.718;2022-09-24T07:22:24;34.37;;;18.07;;
20559;SDS011;10438;51.454;6.718;2022-09-24T07:24:50;32.10;;;17.47;;
20559;SDS011;10438;51.454;6.718;2022-09-24T07:27:16;26.40;;;17.57;;
20559;SDS011;10438;51.454;6.718;2022-09-24T07:29:45;33.97;;;18.27;;
20559;SDS011;10438;51.454;6.718;2022-09-24T07:32:16;33.90;;;18.23;;
20559;SDS011;10438;51.454;6.718;2022-09-24T07:34:43;30.23;;;18.00;;
20559;SDS011;10438;51.454;6.718;2022-09-24T07:37:09;36.17;;;18.33;;
20559;SDS011;10438;51.454;6.718;2022-09-24T07:39:34;30.57;;;19.43;;
20559;SDS011;10438;51.454;6.718;2022-09-24T07:42:00;32.30;;;18.50;;
20559;SDS011;10438;51.454;6.718;2022-09-24T07:44:26;34.70;;;18.70;;
20559;SDS011;10438;51.454;6.718;2022-09-24T07:46:52;31.27;;;19.03;;
20559;SDS011;10438;51.454;6.718;2022-09-24T07:49:19;35.57;;;18.63;;
20559;SDS011;10438;51.454;6.718;2022-09-24T07:51:44;35.67;;;18.93;;
20559;SDS011;10438;51.454;6.718;2022-09-24T07:54:13;37.83;;;18.23;;
20559;SDS011;10438;51.454;6.718;2022-09-24T07:56:38;32.40;;;18.77;;
20559;SDS011;10438;51.454;6.718;2022-09-24T07:59:04;33.47;;;18.40;;
20559;SDS011;10438;51.454;6.718;2022-09-24T08:01:31;34.03;;;18.83;;
20559;SDS011;10438;51.454;6.718;2022-09-24T08:03:57;34.57;;;17.67;;
20559;SDS011;10438;51.454;6.718;2022-09-24T08:06:23;33.63;;;17.83;;
20559;SDS011;10438;51.454;6.718;2022-09-24T08:08:49;31.27;;;19.30;;
20559;SDS011;10438;51.454;6.718;2022-09-24T08:11:17;39.00;;;20.07;;
20559;SDS011;10438;51.454;6.718;2022-09-24T08:13:43;32.00;;;19.77;;
20559;SDS011;10438;51.454;6.718;2022-09-24T08:16:11;29.77;;;19.40;;
20559;SDS011;10438;51.454;6.718;2022-09-24T08:18:37;32.27;;;19.90;;
20559;SDS011;10438;51.454;6.718;2022-09-24T08:21:07;31.97;;;19.47;;
20559;SDS011;10438;51.454;6.718;2022-09-24T08:23:34;36.73;;;18.43;;
20559;SDS011;10438;51.454;6.718;2022-09-24T08:26:00;27.93;;;18.77;;
20559;SDS011;10438;51.454;6.718;2022-09-24T08:28:26;26.60;;;18.70;;
20559;SDS011;10438;51.454;6.718;2022-09-24T08:30:55;27.73;;;17.45;;
20559;SDS011;10438;51.454;6.718;2022-09-24T08:33:28;29.60;;;17.50;;
20559;SDS011;10438;51.454;6.718;2022-09-24T08:35:58;24.75;;;16.35;;
20559;SDS011;10438;51.454;6.718;2022-09-24T08:38:24;29.83;;;16.60;;
20559;SDS011;10438;51.454;6.718;2022-09-24T08:41:00;27.17;;;16.30;;
20559;SDS011;10438;51.454;6.718;2022-09-24T08:46:34;23.70;;;14.70;;
20559;SDS011;10438;51.454;6.718;2022-09-24T08:49:36;22.08;;;13.88;;
20559;SDS011;10438;51.454;6.718;2022-09-24T08:55:14;17.77;;;11.80;;
20559;SDS011;10438;51.454;6.718;2022-09-24T08:57:53;20.15;;;12.90;;
20559;SDS011;10438;51.454;6.718;2022-09-24T09:00:22;18.98;;;11.35;;
20559;SDS011;10438;51.454;6.718;2022-09-24T09:02:51;25.00;;;11.70;;
20559;SDS011;10438;51.454;6.718;2022-09-24T09:08:16;15.27;;;10.57;;
20559;SDS011;10438;51.454;6.718;2022-09-24T09:10:48;17.60;;;9.50;;
20559;SDS011;10438;51.454;6.718;2022-09-24T09:13:23;15.53;;;9.50;;
20559;SDS011;10438;51.454;6.718;2022-09-24T09:16:00;14.10;;;9.10;;
20559;SDS011;10438;51.454;6.718;2022-09-24T09:18:38;13.45;;;8.18;;
20559;SDS011;10438;51.454;6.718;2022-09-24T09:21:16;15.95;;;9.20;;
20559;SDS011;10438;51.454;6.718;2022-09-24T09:23:49;15.40;;;9.38;;
20559;SDS011;10438;51.454;6.718;2022-09-24T09:26:16;15.50;;;10.13;;
20559;SDS011;10438;51.454;6.718;2022-09-24T09:28:44;17.52;;;9.82;;
20559;SDS011;10438;51.454;6.718;2022-09-24T09:33:50;17.67;;;10.20;;
20559;SDS011;10438;51.454;6.718;2022-09-24T09:41:54;15.07;;;10.07;;
20559;SDS011;10438;51.454;6.718;2022-09-24T09:44:27;16.15;;;9.20;;
20559;SDS011;10438;51.454;6.718;2022-09-24T09:49:41;15.90;;;8.90;;
20559;SDS011;10438;51.454;6.718;2022-09-24T09:52:14;15.85;;;9.93;;
20559;SDS011;10438;51.454;6.718;2022-09-24T09:54:44;17.77;;;9.98;;
20559;SDS011;10438;51.454;6.718;2022-09-24T09:57:11;16.05;;;9.43;;
20559;SDS011;10438;51.454;6.718;2022-09-24T09:59:50;13.90;;;9.38;;
20559;SDS011;10438;51.454;6.718;2022-09-24T10:02:22;17.90;;;9.63;;
20559;SDS011;10438;51.454;6.718;2022-09-24T10:04:51;14.57;;;8.93;;
20559;SDS011;10438;51.454;6.718;2022-09-24T10:07:22;12.27;;;7.97;;
20559;SDS011;10438;51.454;6.718;2022-09-24T10:09:57;13.18;;;8.75;;
20559;SDS011;10438;51.454;6.718;2022-09-24T10:12:44;11.82;;;7.82;;
20559;SDS011;10438;51.454;6.718;2022-09-24T10:17:39;15.00;;;6.60;;
20559;SDS011;10438;51.454;6.718;2022-09-24T10:20:12;11.25;;;6.63;;
20559;SDS011;10438;51.454;6.718;2022-09-24T10:22:46;12.15;;;5.68;;
20559;SDS011;10438;51.454;6.718;2022-09-24T10:25:16;8.35;;;5.45;;
20559;SDS011;10438;51.454;6.718;2022-09-24T10:27:47;8.23;;;5.15;;
20559;SDS011;10438;51.454;6.718;2022-09-24T10:30:14;8.32;;;5.00;;
20559;SDS011;10438;51.454;6.718;2022-09-24T10:33:02;9.27;;;5.70;;
20559;SDS011;10438;51.454;6.718;2022-09-24T10:35:31;10.05;;;5.75;;
20559;SDS011;10438;51.454;6.718;2022-09-24T10:38:00;9.68;;;5.75;;
20559;SDS011;10438;51.454;6.718;2022-09-24T10:40:36;8.48;;;5.38;;
20559;SDS011;10438;51.454;6.718;2022-09-24T10:43:03;9.48;;;5.55;;
20559;SDS011;10438;51.454;6.718;2022-09-24T10:45:40;10.45;;;6.32;;
20559;SDS011;10438;51.454;6.718;2022-09-24T10:48:20;8.80;;;4.97;;
20559;SDS011;10438;51.454;6.718;2022-09-24T10:54:08;10.45;;;6.20;;
20559;SDS011;10438;51.454;6.718;2022-09-24T10:56:42;8.98;;;6.18;;
20559;SDS011;10438;51.454;6.718;2022-09-24T11:04:55;10.68;;;5.60;;
20559;SDS011;10438;51.454;6.718;2022-09-24T11:13:13;9.02;;;5.07;;
20559;SDS011;10438;51.454;6.718;2022-09-24T11:18:43;10.13;;;5.43;;
20559;SDS011;10438;51.454;6.718;2022-09-24T11:24:40;11.45;;;5.18;;
20559;SDS011;10438;51.454;6.718;2022-09-24T11:27:43;10.45;;;5.47;;
20559;SDS011;10438;51.454;6.718;2022-09-24T11:30:24;8.40;;;5.38;;
20559;SDS011;10438;51.454;6.718;2022-09-24T11:36:22;11.07;;;6.45;;
20559;SDS011;10438;51.454;6.718;2022-09-24T11:43:59;10.15;;;6.13;;
20559;SDS011;10438;51.454;6.718;2022-09-24T11:46:49;10.43;;;5.97;;
20559;SDS011;10438;51.454;6.718;2022-09-24T11:52:05;8.88;;;5.72;;
20559;SDS011;10438;51.454;6.718;2022-09-24T11:57:23;12.75;;;8.27;;
20559;SDS011;10438;51.454;6.718;2022-09-24T11:59:53;9.20;;;6.10;;
20559;SDS011;10438;51.454;6.718;2022-09-24T12:02:29;12.05;;;6.53;;
20559;SDS011;10438;51.454;6.718;2022-09-24T12:12:56;10.45;;;5.72;;
20559;SDS011;10438;51.454;6.718;2022-09-24T12:15:40;8.68;;;5.90;;
20559;SDS011;10438;51.454;6.718;2022-09-24T12:18:15;10.27;;;6.30;;
20559;SDS011;10438;51.454;6.718;2022-09-24T12:21:25;8.55;;;5.88;;
20559;SDS011;10438;51.454;6.718;2022-09-24T12:24:00;8.60;;;6.10;;
20559;SDS011;10438;51.454;6.718;2022-09-24T12:26:29;8.82;;;5.47;;
20559;SDS011;10438;51.454;6.718;2022-09-24T12:32:28;8.25;;;5.78;;
20559;SDS011;10438;51.454;6.718;2022-09-24T12:35:20;9.50;;;6.20;;
20559;SDS011;10438;51.454;6.718;2022-09-24T12:38:11;12.50;;;5.65;;
20559;SDS011;10438;51.454;6.718;2022-09-24T12:46:06;10.02;;;5.70;;
20559;SDS011;10438;51.454;6.718;2022-09-24T12:51:42;8.70;;;5.65;;
20559;SDS011;10438;51.454;6.718;2022-09-24T12:54:23;10.32;;;4.82;;
20559;SDS011;10438;51.454;6.718;2022-09-24T13:02:16;8.00;;;4.97;;
20559;SDS011;10438;51.454;6.718;2022-09-24T13:04:50;10.02;;;5.68;;
20559;SDS011;10438;51.454;6.718;2022-09-24T13:07:27;9.98;;;5.20;;
20559;SDS011;10438;51.454;6.718;2022-09-24T13:10:24;8.02;;;5.20;;
20559;SDS011;10438;51.454;6.718;2022-09-24T13:12:55;8.13;;;5.20;;
20559;SDS011;10438;51.454;6.718;2022-09-24T13:15:39;8.38;;;4.90;;
20559;SDS011;10438;51.454;6.718;2022-09-24T13:18:16;13.23;;;5.80;;
20559;SDS011;10438;51.454;6.718;2022-09-24T13:21:01;8.45;;;5.10;;
20559;SDS011;10438;51.454;6.718;2022-09-24T13:23:42;7.50;;;4.82;;
20559;SDS011;10438;51.454;6.718;2022-09-24T13:26:24;9.98;;;5.53;;
20559;SDS011;10438;51.454;6.718;2022-09-24T13:34:00;10.43;;;6.20;;
20559;SDS011;10438;51.454;6.718;2022-09-24T13:39:38;7.63;;;5.10;;
20559;SDS011;10438;51.454;6.718;2022-09-24T13:42:14;11.13;;;6.22;;
20559;SDS011;10438;51.454;6.718;2022-09-24T13:45:09;15.50;;;10.98;;
20559;SDS011;10438;51.454;6.718;2022-09-24T13:47:49;16.85;;;11.00;;
20559;SDS011;10438;51.454;6.718;2022-09-24T13:50:24;10.90;;;6.10;;
20559;SDS011;10438;51.454;6.718;2022-09-24T13:55:35;11.63;;;6.50;;
20559;SDS011;10438;51.454;6.718;2022-09-24T14:00:53;9.23;;;5.75;;
20559;SDS011;10438;51.454;6.718;2022-09-24T14:03:20;9.80;;;6.40;;
20559;SDS011;10438;51.454;6.718;2022-09-24T14:05:46;12.23;;;6.28;;
20559;SDS011;10438;51.454;6.718;2022-09-24T14:08:14;11.00;;;6.22;;
20559;SDS011;10438;51.454;6.718;2022-09-24T14:10:42;10.43;;;6.82;;
20559;SDS011;10438;51.454;6.718;2022-09-24T14:15:50;8.82;;;6.05;;
20559;SDS011;10438;51.454;6.718;2022-09-24T14:18:16;10.05;;;6.55;;
20559;SDS011;10438;51.454;6.718;2022-09-24T14:20:42;11.63;;;7.70;;
20559;SDS011;10438;51.454;6.718;2022-09-24T14:23:10;14.85;;;7.80;;
20559;SDS011;10438;51.454;6.718;2022-09-24T14:25:43;12.13;;;7.18;;
20559;SDS011;10438;51.454;6.718;2022-09-24T14:28:11;12.13;;;7.28;;
20559;SDS011;10438;51.454;6.718;2022-09-24T14:30:44;12.10;;;8.35;;
20559;SDS011;10438;51.454;6.718;2022-09-24T14:33:14;12.85;;;7.20;;
20559;SDS011;10438;51.454;6.718;2022-09-24T14:35:45;13.45;;;7.90;;
20559;SDS011;10438;51.454;6.718;2022-09-24T14:41:03;13.10;;;7.97;;
20559;SDS011;10438;51.454;6.718;2022-09-24T14:43:35;14.80;;;8.38;;
20559;SDS011;10438;51.454;6.718;2022-09-24T14:46:24;12.27;;;8.43;;
20559;SDS011;10438;51.454;6.718;2022-09-24T14:49:03;14.80;;;8.80;;
20559;SDS011;10438;51.454;6.718;2022-09-24T14:51:30;15.02;;;9.60;;
20559;SDS011;10438;51.454;6.718;2022-09-24T14:54:17;13.75;;;8.63;;
20559;SDS011;10438;51.454;6.718;2022-09-24T14:56:43;13.73;;;9.25;;
20559;SDS011;10438;51.454;6.718;2022-09-24T14:59:13;14.55;;;9.85;;
20559;SDS011;10438;51.454;6.718;2022-09-24T15:01:40;14.18;;;9.35;;
20559;SDS011;10438;51.454;6.718;2022-09-24T15:04:15;18.27;;;10.30;;
20559;SDS011;10438;51.454;6.718;2022-09-24T15:06:44;14.02;;;9.20;;
20559;SDS011;10438;51.454;6.718;2022-09-24T15:09:26;13.77;;;9.07;;
20559;SDS011;10438;51.454;6.718;2022-09-24T15:11:53;13.00;;;9.18;;
20559;SDS011;10438;51.454;6.718;2022-09-24T15:14:30;14.32;;;9.38;;
20559;SDS011;10438;51.454;6.718;2022-09-24T15:17:06;15.38;;;9.05;;
20559;SDS011;10438;51.454;6.718;2022-09-24T15:19:43;11.40;;;9.45;;
20559;SDS011;10438;51.454;6.718;2022-09-24T15:22:09;14.48;;;8.93;;
20559;SDS011;10438;51.454;6.718;2022-09-24T15:24:35;13.65;;;8.82;;
20559;SDS011;10438;51.454;6.718;2022-09-24T15:27:01;15.57;;;9.07;;
20559;SDS011;10438;51.454;6.718;2022-09-24T15:29:29;14.55;;;9.25;;
20559;SDS011;10438;51.454;6.718;2022-09-24T15:31:55;16.80;;;9.45;;
20559;SDS011;10438;51.454;6.718;2022-09-24T15:34:25;14.32;;;8.50;;
20559;SDS011;10438;51.454;6.718;2022-09-24T15:36:52;14.93;;;9.05;;
20559;SDS011;10438;51.454;6.718;2022-09-24T15:39:23;15.38;;;9.57;;
20559;SDS011;10438;51.454;6.718;2022-09-24T15:41:50;14.95;;;9.50;;
20559;SDS011;10438;51.454;6.718;2022-09-24T15:44:17;16.98;;;10.25;;
20559;SDS011;10438;51.454;6.718;2022-09-24T15:46:46;14.20;;;9.57;;
20559;SDS011;10438;51.454;6.718;2022-09-24T15:49:14;15.18;;;9.05;;
20559;SDS011;10438;51.454;6.718;2022-09-24T15:51:48;14.27;;;9.15;;
20559;SDS011;10438;51.454;6.718;2022-09-24T15:54:30;16.38;;;10.45;;
20559;SDS011;10438;51.454;6.718;2022-09-24T15:56:56;21.15;;;11.73;;
20559;SDS011;10438;51.454;6.718;2022-09-24T15:59:22;19.95;;;12.82;;
20559;SDS011;10438;51.454;6.718;2022-09-24T16:01:50;20.38;;;12.98;;
20559;SDS011;10438;51.454;6.718;2022-09-24T16:04:18;23.77;;;13.68;;
20559;SDS011;10438;51.454;6.718;2022-09-24T16:06:43;26.55;;;14.15;;
20559;SDS011;10438;51.454;6.718;2022-09-24T16:09:09;20.58;;;14.85;;
20559;SDS011;10438;51.454;6.718;2022-09-24T16:11:34;21.97;;;14.57;;
20559;SDS011;10438;51.454;6.718;2022-09-24T16:14:00;21.50;;;14.47;;
20559;SDS011;10438;51.454;6.718;2022-09-24T16:16:26;19.10;;;14.67;;
20559;SDS011;10438;51.454;6.718;2022-09-24T16:18:51;25.33;;;16.77;;
20559;SDS011;10438;51.454;6.718;2022-09-24T16:21:17;24.57;;;17.10;;
20559;SDS011;10438;51.454;6.718;2022-09-24T16:23:43;21.57;;;16.00;;
20559;SDS011;10438;51.454;6.718;2022-09-24T16:26:08;23.47;;;17.70;;
20559;SDS011;10438;51.454;6.718;2022-09-24T16:28:34;28.97;;;17.40;;
20559;SDS011;10438;51.454;6.718;2022-09-24T16:31:04;23.37;;;17.37;;
20559;SDS011;10438;51.454;6.718;2022-09-24T16:33:31;26.23;;;18.70;;
20559;SDS011;10438;51.454;6.718;2022-09-24T16:36:06;25.63;;;18.67;;
20559;SDS011;10438;51.454;6.718;2022-09-24T16:38:36;25.30;;;18.73;;
20559;SDS011;10438;51.454;6.718;2022-09-24T16:41:03;25.40;;;18.83;;